Marion Center, PA

11:39 AM EDT on August 31, 2015 (GMT -0400)
APRSWXNET | | Change Station
CLOSE
Current Station
Personal Weather Station
Location: Hillsdale, PA
Elevation: 1713 ft
Nearby Weather Stations

Elev 1713 ft 40.73 °N, 78.92 °W | Updated 30 minutes ago

Mostly Cloudy
Mostly Cloudy
75 °F
Feels Like 75 °F
N
0
Wind Variable Wind from WSW
Gusts 1.0 mph

Today
High -- | Low -- °F
--% Chance of Precip.
Yesterday
High -- | Low -- °F
Precip. -- in
6:41 AM 7:50 PM
Waning Gibbous, 95% visible
Pressure 30.18 in
Visibility 10.0 miles
Clouds Mostly Cloudy 1700 ft
Heat Index 75 °F
Dew Point 71 °F
Humidity 87%
Rainfall in
Snow Depth Not available.
UV 4 out of 12
Pollen 10.20 out of 12
Air Quality Not available.
Flu Activity Not available.
METAR KIDI 311515Z AUTO 27004KT 10SM BKN017 25/21 A3018 RMK A01
Pressure 30.18 in
Visibility 10.0 miles
Clouds Mostly Cloudy 1700 ft
Heat Index 75 °F
Dew Point 71 °F
Humidity 87%
Rainfall in
Snow Depth Not available.
UV 4 out of 12
Pollen 10.20 out of 12
Air Quality Not available.
Flu Activity Not available.
METAR KIDI 311515Z AUTO 27004KT 10SM BKN017 25/21 A3018 RMK A01

10-Day Weather Forecast

×

Almanac

Astronomy

Aug. 31, 2015 Rise Set
Actual Time
Civil Twilight
Nautical Twilight
Astronomical Twilight
Moon
Length of Visible Light
Length of Day
Tomorrow will be .
, % of the Moon is Illuminated

Today's Extremes

State Highs State Lows

Community

WunderPhotos

Upload Photos

1,851,282 photos uploaded!

WunderBlogs® & News

Nearby

Air Quality

  Air Quality AQ Index Pollutant
Not available.

Snow Depth

Station Depth Elevation

Earthquake Activity

City Distance Mag. Time & Date
Minimum magnitude displayed is 2.5.

Coastal Water Temperatures

Place Temperature

Stations

Nearby Weather Stations

Station Location Temp. Windchill Dew Point Humidity Wind Precip. Elev Updated Type